createdAt,value
2023-03-03T00:03:03.003Z,3.23
2023-03-03T00:06:10.762Z,3.80
2023-03-03T00:09:15.383Z,4.40
2023-03-03T00:12:30.465Z,5.10
2023-03-03T00:15:36.430Z,5.28
2023-03-03T00:18:44.557Z,4.78
2023-03-03T00:21:51.287Z,4.15
2023-03-03T00:24:56.007Z,6.05
2023-03-03T00:28:18.702Z,4.95
2023-03-03T00:31:33.483Z,6.07
2023-03-03T00:34:38.351Z,5.38
2023-03-03T00:37:42.669Z,5.97
2023-03-03T00:40:48.083Z,6.47
2023-03-03T00:43:53.021Z,6.82
2023-03-03T00:50:11.700Z,6.05
2023-03-03T00:53:19.168Z,7.22
2023-03-03T00:56:23.899Z,5.63
2023-03-03T00:59:28.459Z,5.43
2023-03-03T01:02:32.569Z,5.97
2023-03-03T01:05:38.121Z,6.30
2023-03-03T01:08:42.637Z,6.75
2023-03-03T01:11:47.185Z,5.83
2023-03-03T01:14:54.918Z,6.05
2023-03-03T01:17:59.910Z,6.97
2023-03-03T01:21:05.522Z,5.68
2023-03-03T01:24:10.704Z,7.28
2023-03-03T01:27:14.944Z,8.48
2023-03-03T01:30:19.518Z,6.57
2023-03-03T01:33:24.068Z,6.38
2023-03-03T01:36:29.459Z,8.57
2023-03-03T01:39:34.001Z,8.65
2023-03-03T01:42:38.502Z,8.98
2023-03-03T01:46:02.902Z,8.07
2023-03-03T01:49:21.375Z,9.82
2023-03-03T01:52:44.052Z,9.63
2023-03-03T01:55:52.921Z,12.75
2023-03-03T01:59:11.546Z,9.82
2023-03-03T02:02:16.342Z,10.63
2023-03-03T02:05:21.206Z,10.43
2023-03-03T02:08:35.159Z,11.10
2023-03-03T02:11:43.316Z,13.40
2023-03-03T02:14:47.682Z,13.38
2023-03-03T02:18:01.923Z,13.95
2023-03-03T02:21:12.217Z,15.00
2023-03-03T02:24:27.686Z,13.65
2023-03-03T02:27:33.660Z,14.25
2023-03-03T02:30:39.868Z,14.57
2023-03-03T02:33:49.015Z,15.07
2023-03-03T02:36:53.681Z,14.63
2023-03-03T02:39:58.077Z,14.45
2023-03-03T02:43:04.193Z,12.60
2023-03-03T02:46:10.251Z,16.17
2023-03-03T02:49:21.066Z,12.97
2023-03-03T02:52:25.911Z,16.60
2023-03-03T02:55:30.312Z,16.40
2023-03-03T02:58:35.152Z,17.10
2023-03-03T03:01:41.336Z,19.20
2023-03-03T03:04:50.121Z,16.85
2023-03-03T03:07:59.363Z,15.20
2023-03-03T03:11:05.998Z,17.40
2023-03-03T03:14:12.639Z,15.20
2023-03-03T03:17:17.964Z,14.25
2023-03-03T03:23:28.216Z,13.45
2023-03-03T03:29:37.847Z,13.35
2023-03-03T03:32:42.764Z,14.38
2023-03-03T03:35:48.247Z,12.82
2023-03-03T03:38:54.040Z,14.73
2023-03-03T03:41:59.755Z,16.67
2023-03-03T03:45:05.027Z,16.20
2023-03-03T03:48:09.595Z,15.30
2023-03-03T03:51:14.069Z,17.33
2023-03-03T03:54:19.512Z,16.20
2023-03-03T03:57:26.518Z,15.48
2023-03-03T04:00:31.798Z,16.65
2023-03-03T04:03:38.128Z,15.52
2023-03-03T04:06:46.960Z,14.68
2023-03-03T04:09:51.854Z,14.98
2023-03-03T04:12:57.705Z,15.48
2023-03-03T04:16:03.327Z,14.18
2023-03-03T04:22:15.318Z,13.98
2023-03-03T04:25:21.695Z,14.35
2023-03-03T04:31:32.436Z,10.20
2023-03-03T04:34:37.950Z,13.02
2023-03-03T04:40:49.050Z,13.00
2023-03-03T04:43:55.711Z,13.20
2023-03-03T04:47:00.282Z,12.75
2023-03-03T04:50:05.744Z,13.25
2023-03-03T04:53:10.921Z,13.63
2023-03-03T04:56:16.272Z,12.75
2023-03-03T04:59:20.741Z,13.15
2023-03-03T05:02:25.413Z,13.52
2023-03-03T05:05:30.468Z,12.77
2023-03-03T05:08:34.975Z,10.10
2023-03-03T05:11:39.321Z,12.93
2023-03-03T05:14:43.842Z,12.13
2023-03-03T05:17:48.525Z,12.65
2023-03-03T05:20:53.177Z,13.55
2023-03-03T05:23:57.323Z,12.50
2023-03-03T05:27:03.280Z,12.10
2023-03-03T05:30:08.446Z,13.70
2023-03-03T05:33:15.034Z,12.55
2023-03-03T05:36:19.673Z,13.82
2023-03-03T05:39:24.358Z,11.73
2023-03-03T05:42:28.982Z,11.63
2023-03-03T05:45:35.244Z,13.32
2023-03-03T05:48:39.879Z,11.35
2023-03-03T05:51:44.101Z,9.75
2023-03-03T05:54:48.570Z,9.67
2023-03-03T05:57:52.907Z,9.57
2023-03-03T06:00:57.287Z,9.50
2023-03-03T06:04:01.765Z,10.05
2023-03-03T06:07:06.642Z,8.60
2023-03-03T06:10:11.469Z,9.98
2023-03-03T06:13:18.472Z,9.25
2023-03-03T06:16:22.960Z,8.77
2023-03-03T06:19:27.630Z,8.50
2023-03-03T06:22:32.197Z,8.25
2023-03-03T06:25:36.506Z,11.38
2023-03-03T06:28:40.591Z,8.63
2023-03-03T06:31:45.304Z,10.98
2023-03-03T06:34:49.921Z,11.10
2023-03-03T06:37:54.730Z,11.07
2023-03-03T06:41:02.064Z,10.57
2023-03-03T06:44:06.543Z,10.82
2023-03-03T06:47:10.734Z,12.77
2023-03-03T06:50:20.220Z,11.73
2023-03-03T06:53:26.425Z,11.80
2023-03-03T06:56:35.371Z,13.35
2023-03-03T06:59:41.389Z,13.93
2023-03-03T07:02:56.979Z,14.45
2023-03-03T07:06:06.575Z,14.77
2023-03-03T07:09:26.410Z,15.93
2023-03-03T07:12:31.025Z,18.52
2023-03-03T07:15:36.101Z,18.17
2023-03-03T07:21:45.295Z,19.85
2023-03-03T07:24:55.198Z,18.87
2023-03-03T07:28:35.588Z,24.08
2023-03-03T07:31:42.172Z,19.65
2023-03-03T07:34:48.808Z,23.98
2023-03-03T07:37:53.487Z,19.63
2023-03-03T07:41:00.602Z,23.88
2023-03-03T07:44:12.079Z,21.25
2023-03-03T07:47:27.308Z,21.15
2023-03-03T07:50:32.306Z,18.60
2023-03-03T07:56:42.624Z,19.77
2023-03-03T07:59:52.706Z,25.10
2023-03-03T08:03:14.918Z,27.38
2023-03-03T08:06:45.180Z,27.65
2023-03-03T08:09:59.433Z,22.05
2023-03-03T08:13:17.223Z,22.42
2023-03-03T08:16:30.568Z,22.55
2023-03-03T08:19:35.133Z,20.52
2023-03-03T08:22:39.634Z,21.50
2023-03-03T08:25:44.580Z,18.10
2023-03-03T08:28:49.219Z,20.15
2023-03-03T08:31:53.669Z,15.27
2023-03-03T08:34:57.790Z,20.75
2023-03-03T08:38:02.882Z,20.90
2023-03-03T08:41:07.568Z,19.75
2023-03-03T08:44:11.932Z,23.80
2023-03-03T08:47:16.223Z,17.63
2023-03-03T08:50:21.036Z,20.67
2023-03-03T08:53:25.736Z,20.02
2023-03-03T08:56:29.954Z,14.38
2023-03-03T08:59:38.875Z,13.60
2023-03-03T09:02:43.548Z,13.20
2023-03-03T09:05:48.028Z,11.27
2023-03-03T09:08:53.177Z,10.87
2023-03-03T09:12:15.043Z,9.80
2023-03-03T09:15:31.167Z,9.85
2023-03-03T09:18:37.791Z,10.55
2023-03-03T09:21:42.475Z,7.57
2023-03-03T09:24:49.143Z,7.95
2023-03-03T09:27:55.019Z,8.55
2023-03-03T09:31:02.470Z,7.75
2023-03-03T09:34:18.939Z,7.07
2023-03-03T09:37:33.320Z,6.95
2023-03-03T09:40:55.865Z,6.68
2023-03-03T09:44:05.886Z,6.05
2023-03-03T09:47:33.243Z,6.55
2023-03-03T09:51:06.722Z,5.45
2023-03-03T09:54:41.852Z,6.82
2023-03-03T09:58:20.900Z,7.72
2023-03-03T10:01:40.694Z,8.35
2023-03-03T10:05:04.103Z,7.82
2023-03-03T10:08:40.927Z,7.07
2023-03-03T10:12:28.311Z,7.55
2023-03-03T10:16:09.997Z,9.57
2023-03-03T10:19:37.402Z,8.85
2023-03-03T10:22:52.891Z,9.18
2023-03-03T10:26:44.365Z,9.35
2023-03-03T10:30:20.194Z,8.55
2023-03-03T10:33:37.452Z,8.75
2023-03-03T10:36:47.725Z,8.10
2023-03-03T10:40:18.965Z,7.47
2023-03-03T10:43:42.868Z,9.77
2023-03-03T10:47:18.835Z,9.07
2023-03-03T10:51:01.573Z,8.98
2023-03-03T10:55:00.104Z,8.95
2023-03-03T10:58:13.564Z,8.93
2023-03-03T11:01:44.632Z,9.80
2023-03-03T11:05:18.318Z,9.38
2023-03-03T11:08:43.563Z,9.13
2023-03-03T11:11:55.724Z,8.98
2023-03-03T11:15:05.890Z,7.75
2023-03-03T11:18:39.397Z,8.43
2023-03-03T11:22:14.115Z,9.27
2023-03-03T11:25:58.815Z,8.30
2023-03-03T11:29:09.368Z,9.35
2023-03-03T11:32:49.114Z,9.88
2023-03-03T11:36:10.632Z,9.10
2023-03-03T11:39:21.756Z,9.43
2023-03-03T11:42:44.792Z,8.75
2023-03-03T11:45:56.452Z,9.65
2023-03-03T11:49:25.050Z,8.00
2023-03-03T11:52:41.155Z,9.43
2023-03-03T11:55:56.666Z,9.23
2023-03-03T11:59:05.870Z,10.10
2023-03-03T12:02:34.975Z,10.70
2023-03-03T12:05:54.825Z,10.38
2023-03-03T12:09:41.445Z,10.02
2023-03-03T12:16:07.583Z,9.25
2023-03-03T12:19:18.056Z,8.05
2023-03-03T12:22:33.482Z,8.95
2023-03-03T12:25:46.963Z,6.93
2023-03-03T12:29:12.399Z,7.50
2023-03-03T12:32:52.040Z,5.90
2023-03-03T12:36:29.424Z,6.47
2023-03-03T12:39:52.310Z,6.50
2023-03-03T12:43:24.170Z,5.60
2023-03-03T12:46:53.259Z,5.25
2023-03-03T12:50:19.056Z,4.78
2023-03-03T12:53:49.644Z,4.63
2023-03-03T12:56:56.344Z,4.18
2023-03-03T13:00:24.316Z,4.43
2023-03-03T13:04:05.692Z,4.20
2023-03-03T13:07:16.475Z,4.50
2023-03-03T13:10:37.513Z,4.75
2023-03-03T13:14:21.931Z,3.72
2023-03-03T13:17:42.867Z,4.15
2023-03-03T13:21:06.693Z,4.07
2023-03-03T13:24:49.798Z,4.50
2023-03-03T13:28:02.967Z,4.38
2023-03-03T13:31:35.507Z,6.60
2023-03-03T13:35:04.150Z,6.85
2023-03-03T13:38:22.062Z,6.50
2023-03-03T13:41:32.893Z,6.32
2023-03-03T13:44:58.073Z,5.43
2023-03-03T13:48:29.925Z,7.00
2023-03-03T13:51:43.561Z,7.32
2023-03-03T13:55:20.578Z,6.28
2023-03-03T13:58:51.434Z,5.47
2023-03-03T14:02:25.899Z,5.07
2023-03-03T14:06:02.087Z,5.03
2023-03-03T14:09:34.920Z,5.32
2023-03-03T14:12:57.577Z,5.95
2023-03-03T14:16:17.026Z,4.82
2023-03-03T14:19:32.808Z,5.03
2023-03-03T14:22:57.979Z,6.03
2023-03-03T14:26:12.141Z,5.40
2023-03-03T14:29:28.431Z,5.05
2023-03-03T14:32:45.074Z,5.57
2023-03-03T14:36:00.943Z,5.22
2023-03-03T14:39:28.095Z,6.53
2023-03-03T14:42:39.074Z,5.53
2023-03-03T14:45:45.247Z,5.60
2023-03-03T14:49:01.428Z,4.35
2023-03-03T14:52:19.922Z,3.85
2023-03-03T14:55:37.115Z,3.47
2023-03-03T14:58:42.724Z,3.30
2023-03-03T15:01:48.179Z,3.45
2023-03-03T15:05:19.501Z,3.72
2023-03-03T15:08:33.492Z,4.20
2023-03-03T15:11:39.974Z,3.58
2023-03-03T15:14:59.403Z,3.85
2023-03-03T15:18:13.878Z,5.05
2023-03-03T15:21:32.563Z,6.40
2023-03-03T15:24:50.818Z,5.55
2023-03-03T15:28:27.456Z,6.72
2023-03-03T15:31:52.206Z,6.38
2023-03-03T15:35:14.903Z,7.53
2023-03-03T15:38:57.606Z,8.43
2023-03-03T15:42:40.641Z,9.82
2023-03-03T15:46:20.094Z,13.05
2023-03-03T15:49:44.899Z,11.68
2023-03-03T15:52:53.121Z,10.82
2023-03-03T15:56:21.257Z,10.35
2023-03-03T15:59:37.116Z,12.63
2023-03-03T16:03:04.621Z,12.25
2023-03-03T16:09:36.380Z,9.35
2023-03-03T16:12:48.703Z,6.07
2023-03-03T16:16:23.890Z,6.18
2023-03-03T16:19:54.985Z,4.57
2023-03-03T16:23:21.115Z,5.05
2023-03-03T16:27:03.355Z,4.82
2023-03-03T16:30:25.167Z,4.70
2023-03-03T16:33:50.201Z,4.97
2023-03-03T16:37:12.322Z,4.03
2023-03-03T16:40:32.275Z,5.75
2023-03-03T16:44:18.829Z,3.40
2023-03-03T16:47:50.718Z,5.90
2023-03-03T16:51:12.793Z,3.25
2023-03-03T16:54:40.033Z,3.88
2023-03-03T16:58:06.371Z,4.63
2023-03-03T17:01:40.749Z,3.90
2023-03-03T17:05:00.650Z,4.07
2023-03-03T17:08:39.059Z,4.97
2023-03-03T17:11:56.974Z,4.65
2023-03-03T17:15:10.262Z,4.80
2023-03-03T17:18:46.438Z,5.95
2023-03-03T17:22:32.525Z,4.72
2023-03-03T17:26:16.772Z,5.63
2023-03-03T17:29:26.856Z,5.30
2023-03-03T17:32:58.922Z,5.18
2023-03-03T17:36:43.194Z,8.32
2023-03-03T17:40:21.449Z,5.93
2023-03-03T17:43:37.476Z,5.60
2023-03-03T17:46:58.986Z,4.28
2023-03-03T17:50:11.161Z,5.07
2023-03-03T17:53:34.081Z,6.80
2023-03-03T17:57:13.986Z,7.10
2023-03-03T18:00:31.459Z,6.05
2023-03-03T18:04:06.954Z,8.65
2023-03-03T18:07:30.147Z,6.90
2023-03-03T18:10:58.990Z,7.85
2023-03-03T18:14:40.565Z,7.88
2023-03-03T18:18:17.946Z,7.65
2023-03-03T18:21:28.229Z,8.02
2023-03-03T18:24:54.524Z,9.63
2023-03-03T18:28:01.835Z,8.18
2023-03-03T18:31:19.765Z,7.00
2023-03-03T18:34:41.392Z,8.05
2023-03-03T18:37:46.489Z,7.03
2023-03-03T18:40:51.110Z,8.23
2023-03-03T18:44:04.562Z,7.78
2023-03-03T18:47:10.111Z,7.68
2023-03-03T18:50:23.408Z,6.60
2023-03-03T18:53:29.525Z,7.22
2023-03-03T18:56:46.296Z,6.28
2023-03-03T19:00:09.926Z,5.35
2023-03-03T19:03:29.922Z,5.65
2023-03-03T19:06:37.514Z,5.07
2023-03-03T19:09:52.399Z,4.38
2023-03-03T19:12:58.212Z,3.60
2023-03-03T19:16:10.590Z,5.00
2023-03-03T19:19:17.633Z,2.88
2023-03-03T19:22:26.277Z,3.50
2023-03-03T19:25:34.264Z,3.17
2023-03-03T19:29:23.580Z,3.22
2023-03-03T19:32:53.442Z,1.90
2023-03-03T19:36:10.716Z,3.60
2023-03-03T19:39:23.268Z,3.03
2023-03-03T19:42:50.808Z,3.72
2023-03-03T19:45:55.330Z,3.35
2023-03-03T19:49:39.567Z,3.42
2023-03-03T19:52:48.607Z,3.40
2023-03-03T19:56:24.608Z,3.50
2023-03-03T19:59:47.935Z,2.70
2023-03-03T20:03:43.907Z,3.45
2023-03-03T20:06:53.064Z,3.92
2023-03-03T20:10:13.738Z,3.33
2023-03-03T20:13:37.531Z,5.00
2023-03-03T20:16:45.056Z,6.43
2023-03-03T20:19:59.349Z,4.07
2023-03-03T20:23:32.187Z,5.82
2023-03-03T20:26:48.246Z,5.35
2023-03-03T20:29:55.418Z,3.63
2023-03-03T20:33:14.684Z,4.70
2023-03-03T20:36:28.936Z,3.03
2023-03-03T20:39:57.211Z,5.17
2023-03-03T20:43:27.757Z,2.92
2023-03-03T20:46:53.484Z,4.90
2023-03-03T20:50:15.931Z,4.10
2023-03-03T20:53:29.002Z,3.47
2023-03-03T20:56:55.494Z,4.47
2023-03-03T21:00:18.306Z,3.10
2023-03-03T21:03:45.134Z,6.38
2023-03-03T21:06:50.625Z,3.65
2023-03-03T21:10:17.746Z,3.95
2023-03-03T21:13:37.121Z,4.43
2023-03-03T21:16:42.457Z,4.90
2023-03-03T21:19:46.497Z,5.57
2023-03-03T21:22:52.011Z,3.83
2023-03-03T21:25:58.210Z,4.65
2023-03-03T21:29:03.657Z,3.67
2023-03-03T21:32:10.460Z,4.63
2023-03-03T21:35:21.795Z,3.28
2023-03-03T21:38:37.675Z,5.53
2023-03-03T21:41:59.987Z,4.72
2023-03-03T21:45:15.476Z,5.00
2023-03-03T21:51:24.865Z,3.40
2023-03-03T21:54:29.378Z,3.58
2023-03-03T21:57:35.241Z,3.75
2023-03-03T22:00:39.807Z,3.45
2023-03-03T22:03:45.138Z,4.00
2023-03-03T22:06:50.673Z,3.70
2023-03-03T22:09:55.070Z,4.45
2023-03-03T22:12:59.514Z,6.15
2023-03-03T22:16:04.395Z,3.72
2023-03-03T22:19:09.624Z,4.10
2023-03-03T22:22:13.801Z,5.93
2023-03-03T22:25:18.194Z,4.40
2023-03-03T22:28:22.749Z,2.97
2023-03-03T22:31:27.378Z,3.95
2023-03-03T22:34:31.713Z,3.03
2023-03-03T22:37:36.084Z,3.83
2023-03-03T22:40:40.650Z,3.15
2023-03-03T22:43:45.537Z,3.20
2023-03-03T22:46:49.535Z,4.22
2023-03-03T22:49:53.971Z,2.70
2023-03-03T22:52:58.367Z,4.22
2023-03-03T22:56:02.847Z,3.88
2023-03-03T22:59:07.375Z,3.25
2023-03-03T23:02:11.583Z,3.53
2023-03-03T23:05:15.812Z,2.85
2023-03-03T23:08:20.752Z,3.70
2023-03-03T23:11:27.472Z,4.13
2023-03-03T23:14:31.635Z,6.68
2023-03-03T23:17:36.290Z,2.95
2023-03-03T23:20:45.622Z,2.17
2023-03-03T23:23:50.492Z,3.38
2023-03-03T23:26:57.977Z,4.90
2023-03-03T23:30:02.628Z,4.95
2023-03-03T23:33:06.890Z,4.53
2023-03-03T23:36:11.288Z,3.53
2023-03-03T23:39:16.654Z,3.10
2023-03-03T23:42:21.209Z,4.05
2023-03-03T23:45:25.656Z,4.30
2023-03-03T23:48:30.441Z,3.70
2023-03-03T23:51:35.040Z,3.88
2023-03-03T23:54:39.426Z,3.43
2023-03-03T23:57:43.784Z,2.77
